sensor_id;sensor_type;location;lat;lon;timestamp;temperature;humidity
12156;DHT22;6141;49.092;8.516;2023-02-24T00:00:26;12.70;67.50
12156;DHT22;6141;49.092;8.516;2023-02-24T00:03:03;12.80;66.70
12156;DHT22;6141;49.092;8.516;2023-02-24T00:05:38;12.80;67.00
12156;DHT22;6141;49.092;8.516;2023-02-24T00:08:10;12.80;66.80
12156;DHT22;6141;49.092;8.516;2023-02-24T00:10:38;12.80;66.70
12156;DHT22;6141;49.092;8.516;2023-02-24T00:13:07;12.80;66.50
12156;DHT22;6141;49.092;8.516;2023-02-24T00:15:38;12.80;66.70
12156;DHT22;6141;49.092;8.516;2023-02-24T00:18:07;12.80;66.50
12156;DHT22;6141;49.092;8.516;2023-02-24T00:20:37;12.80;66.30
12156;DHT22;6141;49.092;8.516;2023-02-24T00:23:09;12.80;66.00
12156;DHT22;6141;49.092;8.516;2023-02-24T00:25:37;12.80;66.00
12156;DHT22;6141;49.092;8.516;2023-02-24T00:28:05;12.70;65.70
12156;DHT22;6141;49.092;8.516;2023-02-24T00:30:34;12.60;66.00
12156;DHT22;6141;49.092;8.516;2023-02-24T00:33:03;12.60;66.20
12156;DHT22;6141;49.092;8.516;2023-02-24T00:35:33;12.60;66.10
12156;DHT22;6141;49.092;8.516;2023-02-24T00:38:03;12.60;66.00
12156;DHT22;6141;49.092;8.516;2023-02-24T00:40:31;12.60;65.50
12156;DHT22;6141;49.092;8.516;2023-02-24T00:43:03;12.50;65.80
12156;DHT22;6141;49.092;8.516;2023-02-24T00:45:34;12.50;65.40
12156;DHT22;6141;49.092;8.516;2023-02-24T00:48:05;12.40;65.20
12156;DHT22;6141;49.092;8.516;2023-02-24T00:50:36;12.40;65.90
12156;DHT22;6141;49.092;8.516;2023-02-24T00:53:09;12.30;66.10
12156;DHT22;6141;49.092;8.516;2023-02-24T00:55:37;12.30;66.20
12156;DHT22;6141;49.092;8.516;2023-02-24T00:58:05;12.30;66.10
12156;DHT22;6141;49.092;8.516;2023-02-24T01:00:35;12.30;65.60
12156;DHT22;6141;49.092;8.516;2023-02-24T01:03:04;12.30;65.80
12156;DHT22;6141;49.092;8.516;2023-02-24T01:05:35;12.30;65.60
12156;DHT22;6141;49.092;8.516;2023-02-24T01:08:06;12.30;65.50
12156;DHT22;6141;49.092;8.516;2023-02-24T01:10:36;12.30;64.70
12156;DHT22;6141;49.092;8.516;2023-02-24T01:13:05;12.20;64.60
12156;DHT22;6141;49.092;8.516;2023-02-24T01:15:34;12.10;65.10
12156;DHT22;6141;49.092;8.516;2023-02-24T01:18:02;12.00;65.80
12156;DHT22;6141;49.092;8.516;2023-02-24T01:20:35;12.00;65.30
12156;DHT22;6141;49.092;8.516;2023-02-24T01:23:05;12.00;65.30
12156;DHT22;6141;49.092;8.516;2023-02-24T01:25:37;12.00;65.30
12156;DHT22;6141;49.092;8.516;2023-02-24T01:28:05;12.00;65.50
12156;DHT22;6141;49.092;8.516;2023-02-24T01:30:37;12.00;65.20
12156;DHT22;6141;49.092;8.516;2023-02-24T01:33:05;11.90;65.20
12156;DHT22;6141;49.092;8.516;2023-02-24T01:35:34;11.90;65.20
12156;DHT22;6141;49.092;8.516;2023-02-24T01:38:03;11.90;64.70
12156;DHT22;6141;49.092;8.516;2023-02-24T01:40:33;11.90;64.80
12156;DHT22;6141;49.092;8.516;2023-02-24T01:43:05;11.90;64.40
12156;DHT22;6141;49.092;8.516;2023-02-24T01:45:35;12.00;64.80
12156;DHT22;6141;49.092;8.516;2023-02-24T01:48:07;12.00;63.90
12156;DHT22;6141;49.092;8.516;2023-02-24T01:50:37;12.00;64.00
12156;DHT22;6141;49.092;8.516;2023-02-24T01:53:08;12.00;63.80
12156;DHT22;6141;49.092;8.516;2023-02-24T01:55:41;12.10;62.90
12156;DHT22;6141;49.092;8.516;2023-02-24T01:58:19;12.10;63.60
12156;DHT22;6141;49.092;8.516;2023-02-24T02:00:50;11.90;63.80
12156;DHT22;6141;49.092;8.516;2023-02-24T02:03:24;12.00;64.20
12156;DHT22;6141;49.092;8.516;2023-02-24T02:05:58;12.00;64.60
12156;DHT22;6141;49.092;8.516;2023-02-24T02:08:30;12.00;64.30
12156;DHT22;6141;49.092;8.516;2023-02-24T02:11:03;12.10;64.00
12156;DHT22;6141;49.092;8.516;2023-02-24T02:13:35;12.00;63.90
12156;DHT22;6141;49.092;8.516;2023-02-24T02:19:16;12.10;64.00
12156;DHT22;6141;49.092;8.516;2023-02-24T02:22:04;12.10;64.00
12156;DHT22;6141;49.092;8.516;2023-02-24T02:24:41;12.20;64.10
12156;DHT22;6141;49.092;8.516;2023-02-24T02:30:44;12.20;63.70
12156;DHT22;6141;49.092;8.516;2023-02-24T02:36:30;12.10;63.20
12156;DHT22;6141;49.092;8.516;2023-02-24T02:39:10;12.00;63.40
12156;DHT22;6141;49.092;8.516;2023-02-24T02:41:48;12.00;63.10
12156;DHT22;6141;49.092;8.516;2023-02-24T02:44:20;11.90;63.40
12156;DHT22;6141;49.092;8.516;2023-02-24T02:46:54;11.90;63.10
12156;DHT22;6141;49.092;8.516;2023-02-24T02:49:30;12.00;63.10
12156;DHT22;6141;49.092;8.516;2023-02-24T02:52:05;12.00;63.80
12156;DHT22;6141;49.092;8.516;2023-02-24T02:54:47;11.90;63.80
12156;DHT22;6141;49.092;8.516;2023-02-24T02:57:19;11.90;63.80
12156;DHT22;6141;49.092;8.516;2023-02-24T02:59:54;11.90;63.20
12156;DHT22;6141;49.092;8.516;2023-02-24T03:02:27;12.00;62.90
12156;DHT22;6141;49.092;8.516;2023-02-24T03:05:00;11.90;62.70
12156;DHT22;6141;49.092;8.516;2023-02-24T03:07:33;11.90;63.20
12156;DHT22;6141;49.092;8.516;2023-02-24T03:10:09;11.80;63.20
12156;DHT22;6141;49.092;8.516;2023-02-24T03:12:44;11.80;63.40
12156;DHT22;6141;49.092;8.516;2023-02-24T03:15:15;11.80;63.30
12156;DHT22;6141;49.092;8.516;2023-02-24T03:17:52;11.80;63.00
12156;DHT22;6141;49.092;8.516;2023-02-24T03:20:26;11.80;62.80
12156;DHT22;6141;49.092;8.516;2023-02-24T03:23:06;11.80;62.60
12156;DHT22;6141;49.092;8.516;2023-02-24T03:25:52;11.70;63.20
12156;DHT22;6141;49.092;8.516;2023-02-24T03:28:37;11.70;63.70
12156;DHT22;6141;49.092;8.516;2023-02-24T03:31:09;11.80;63.30
12156;DHT22;6141;49.092;8.516;2023-02-24T03:33:42;11.80;63.40
12156;DHT22;6141;49.092;8.516;2023-02-24T03:36:13;11.80;63.00
12156;DHT22;6141;49.092;8.516;2023-02-24T03:38:43;11.90;62.90
12156;DHT22;6141;49.092;8.516;2023-02-24T03:41:16;11.90;62.40
12156;DHT22;6141;49.092;8.516;2023-02-24T03:43:46;11.90;62.10
12156;DHT22;6141;49.092;8.516;2023-02-24T03:46:17;11.90;61.90
12156;DHT22;6141;49.092;8.516;2023-02-24T03:48:49;11.90;61.90
12156;DHT22;6141;49.092;8.516;2023-02-24T03:51:21;11.90;61.50
12156;DHT22;6141;49.092;8.516;2023-02-24T03:54:02;11.90;61.80
12156;DHT22;6141;49.092;8.516;2023-02-24T03:56:44;11.90;62.00
12156;DHT22;6141;49.092;8.516;2023-02-24T03:59:20;11.80;62.10
12156;DHT22;6141;49.092;8.516;2023-02-24T04:01:57;11.80;62.20
12156;DHT22;6141;49.092;8.516;2023-02-24T04:04:38;11.80;62.00
12156;DHT22;6141;49.092;8.516;2023-02-24T04:07:26;11.80;62.20
12156;DHT22;6141;49.092;8.516;2023-02-24T04:10:03;11.70;62.60
12156;DHT22;6141;49.092;8.516;2023-02-24T04:12:41;11.80;62.20
12156;DHT22;6141;49.092;8.516;2023-02-24T04:15:18;11.70;62.40
12156;DHT22;6141;49.092;8.516;2023-02-24T04:17:50;11.50;62.50
12156;DHT22;6141;49.092;8.516;2023-02-24T04:20:23;11.60;63.30
12156;DHT22;6141;49.092;8.516;2023-02-24T04:23:02;11.60;63.50
12156;DHT22;6141;49.092;8.516;2023-02-24T04:25:38;11.60;62.60
12156;DHT22;6141;49.092;8.516;2023-02-24T04:28:09;11.60;62.30
12156;DHT22;6141;49.092;8.516;2023-02-24T04:30:45;11.70;62.70
12156;DHT22;6141;49.092;8.516;2023-02-24T04:33:16;11.60;62.60
12156;DHT22;6141;49.092;8.516;2023-02-24T04:35:47;11.60;62.90
12156;DHT22;6141;49.092;8.516;2023-02-24T04:38:17;11.60;63.20
12156;DHT22;6141;49.092;8.516;2023-02-24T04:40:49;11.60;63.20
12156;DHT22;6141;49.092;8.516;2023-02-24T04:43:17;11.60;63.60
12156;DHT22;6141;49.092;8.516;2023-02-24T04:45:45;11.60;63.60
12156;DHT22;6141;49.092;8.516;2023-02-24T04:48:14;11.60;62.40
12156;DHT22;6141;49.092;8.516;2023-02-24T04:50:43;11.60;62.10
12156;DHT22;6141;49.092;8.516;2023-02-24T04:53:15;11.50;63.10
12156;DHT22;6141;49.092;8.516;2023-02-24T04:55:45;11.50;62.90
12156;DHT22;6141;49.092;8.516;2023-02-24T04:58:18;11.60;62.80
12156;DHT22;6141;49.092;8.516;2023-02-24T05:00:49;11.60;62.30
12156;DHT22;6141;49.092;8.516;2023-02-24T05:03:19;11.60;61.40
12156;DHT22;6141;49.092;8.516;2023-02-24T05:05:49;11.60;62.10
12156;DHT22;6141;49.092;8.516;2023-02-24T05:08:19;11.50;62.90
12156;DHT22;6141;49.092;8.516;2023-02-24T05:10:48;11.40;63.40
12156;DHT22;6141;49.092;8.516;2023-02-24T05:13:19;11.30;63.70
12156;DHT22;6141;49.092;8.516;2023-02-24T05:15:53;11.30;63.90
12156;DHT22;6141;49.092;8.516;2023-02-24T05:18:24;11.30;64.50
12156;DHT22;6141;49.092;8.516;2023-02-24T05:20:56;11.30;64.70
12156;DHT22;6141;49.092;8.516;2023-02-24T05:23:44;11.10;64.90
12156;DHT22;6141;49.092;8.516;2023-02-24T05:26:15;11.20;65.80
12156;DHT22;6141;49.092;8.516;2023-02-24T05:28:46;11.10;65.20
12156;DHT22;6141;49.092;8.516;2023-02-24T05:31:17;11.10;65.90
12156;DHT22;6141;49.092;8.516;2023-02-24T05:33:48;11.10;66.20
12156;DHT22;6141;49.092;8.516;2023-02-24T05:36:21;11.20;66.40
12156;DHT22;6141;49.092;8.516;2023-02-24T05:38:52;11.20;66.30
12156;DHT22;6141;49.092;8.516;2023-02-24T05:41:25;11.30;66.00
12156;DHT22;6141;49.092;8.516;2023-02-24T05:44:01;11.40;65.70
12156;DHT22;6141;49.092;8.516;2023-02-24T05:46:32;11.50;65.00
12156;DHT22;6141;49.092;8.516;2023-02-24T05:49:03;11.50;64.00
12156;DHT22;6141;49.092;8.516;2023-02-24T05:51:38;11.40;63.80
12156;DHT22;6141;49.092;8.516;2023-02-24T05:54:11;11.10;64.10
12156;DHT22;6141;49.092;8.516;2023-02-24T05:56:41;11.10;66.10
12156;DHT22;6141;49.092;8.516;2023-02-24T05:59:12;11.20;65.20
12156;DHT22;6141;49.092;8.516;2023-02-24T06:01:44;11.10;65.00
12156;DHT22;6141;49.092;8.516;2023-02-24T06:04:14;11.20;65.10
12156;DHT22;6141;49.092;8.516;2023-02-24T06:06:53;11.20;65.30
12156;DHT22;6141;49.092;8.516;2023-02-24T06:09:22;11.10;65.50
12156;DHT22;6141;49.092;8.516;2023-02-24T06:11:51;11.00;65.80
12156;DHT22;6141;49.092;8.516;2023-02-24T06:14:21;11.10;66.10
12156;DHT22;6141;49.092;8.516;2023-02-24T06:16:49;11.10;65.90
12156;DHT22;6141;49.092;8.516;2023-02-24T06:19:18;11.10;66.30
12156;DHT22;6141;49.092;8.516;2023-02-24T06:21:49;11.10;66.00
12156;DHT22;6141;49.092;8.516;2023-02-24T06:24:18;11.00;66.60
12156;DHT22;6141;49.092;8.516;2023-02-24T06:26:46;11.00;66.40
12156;DHT22;6141;49.092;8.516;2023-02-24T06:29:16;11.00;66.80
12156;DHT22;6141;49.092;8.516;2023-02-24T06:31:47;11.00;66.80
12156;DHT22;6141;49.092;8.516;2023-02-24T06:34:16;11.00;66.40
12156;DHT22;6141;49.092;8.516;2023-02-24T06:36:45;11.00;65.70
12156;DHT22;6141;49.092;8.516;2023-02-24T06:39:15;11.00;66.10
12156;DHT22;6141;49.092;8.516;2023-02-24T06:41:44;11.00;66.10
12156;DHT22;6141;49.092;8.516;2023-02-24T06:44:12;11.00;66.50
12156;DHT22;6141;49.092;8.516;2023-02-24T06:46:40;11.00;66.50
12156;DHT22;6141;49.092;8.516;2023-02-24T06:49:10;11.00;66.70
12156;DHT22;6141;49.092;8.516;2023-02-24T06:51:39;11.10;66.50
12156;DHT22;6141;49.092;8.516;2023-02-24T06:54:09;11.10;66.90
12156;DHT22;6141;49.092;8.516;2023-02-24T06:56:38;11.00;66.50
12156;DHT22;6141;49.092;8.516;2023-02-24T06:59:07;11.00;66.40
12156;DHT22;6141;49.092;8.516;2023-02-24T07:01:38;11.00;66.60
12156;DHT22;6141;49.092;8.516;2023-02-24T07:04:13;11.10;66.20
12156;DHT22;6141;49.092;8.516;2023-02-24T07:06:48;11.20;66.00
12156;DHT22;6141;49.092;8.516;2023-02-24T07:09:19;11.10;66.10
12156;DHT22;6141;49.092;8.516;2023-02-24T07:11:49;11.10;65.70
12156;DHT22;6141;49.092;8.516;2023-02-24T07:14:19;11.10;64.60
12156;DHT22;6141;49.092;8.516;2023-02-24T07:16:48;11.10;65.10
12156;DHT22;6141;49.092;8.516;2023-02-24T07:19:24;11.10;65.00
12156;DHT22;6141;49.092;8.516;2023-02-24T07:21:54;11.20;64.90
12156;DHT22;6141;49.092;8.516;2023-02-24T07:24:27;11.30;64.50
12156;DHT22;6141;49.092;8.516;2023-02-24T07:27:06;11.20;64.40
12156;DHT22;6141;49.092;8.516;2023-02-24T07:29:36;11.20;64.40
12156;DHT22;6141;49.092;8.516;2023-02-24T07:32:06;11.30;64.30
12156;DHT22;6141;49.092;8.516;2023-02-24T07:34:37;11.30;64.10
12156;DHT22;6141;49.092;8.516;2023-02-24T07:37:07;11.20;64.80
12156;DHT22;6141;49.092;8.516;2023-02-24T07:39:37;11.20;64.70
12156;DHT22;6141;49.092;8.516;2023-02-24T07:42:08;11.20;66.00
12156;DHT22;6141;49.092;8.516;2023-02-24T07:44:50;11.10;65.00
12156;DHT22;6141;49.092;8.516;2023-02-24T07:47:21;11.10;64.30
12156;DHT22;6141;49.092;8.516;2023-02-24T07:49:52;11.20;65.00
12156;DHT22;6141;49.092;8.516;2023-02-24T07:52:21;11.20;64.80
12156;DHT22;6141;49.092;8.516;2023-02-24T07:54:49;11.30;63.80
12156;DHT22;6141;49.092;8.516;2023-02-24T07:57:18;11.30;63.30
12156;DHT22;6141;49.092;8.516;2023-02-24T07:59:46;11.20;63.00
12156;DHT22;6141;49.092;8.516;2023-02-24T08:02:15;11.20;63.30
12156;DHT22;6141;49.092;8.516;2023-02-24T08:04:44;11.40;63.10
12156;DHT22;6141;49.092;8.516;2023-02-24T08:07:18;11.40;62.40
12156;DHT22;6141;49.092;8.516;2023-02-24T08:09:51;11.40;61.80
12156;DHT22;6141;49.092;8.516;2023-02-24T08:12:51;11.30;61.00
12156;DHT22;6141;49.092;8.516;2023-02-24T08:15:22;11.30;61.80
12156;DHT22;6141;49.092;8.516;2023-02-24T08:17:53;11.20;62.40
12156;DHT22;6141;49.092;8.516;2023-02-24T08:20:29;11.10;62.90
12156;DHT22;6141;49.092;8.516;2023-02-24T08:23:03;11.10;63.10
12156;DHT22;6141;49.092;8.516;2023-02-24T08:25:34;11.10;62.90
12156;DHT22;6141;49.092;8.516;2023-02-24T08:28:04;11.20;62.60
12156;DHT22;6141;49.092;8.516;2023-02-24T08:30:38;11.30;62.30
12156;DHT22;6141;49.092;8.516;2023-02-24T08:33:09;11.30;60.20
12156;DHT22;6141;49.092;8.516;2023-02-24T08:35:38;11.20;59.10
12156;DHT22;6141;49.092;8.516;2023-02-24T08:38:15;11.30;59.80
12156;DHT22;6141;49.092;8.516;2023-02-24T08:40:46;11.40;59.90
12156;DHT22;6141;49.092;8.516;2023-02-24T08:43:20;11.40;58.20
12156;DHT22;6141;49.092;8.516;2023-02-24T08:46:02;11.50;58.90
12156;DHT22;6141;49.092;8.516;2023-02-24T08:48:33;11.50;58.30
12156;DHT22;6141;49.092;8.516;2023-02-24T08:51:09;11.50;58.00
12156;DHT22;6141;49.092;8.516;2023-02-24T08:53:39;11.50;58.30
12156;DHT22;6141;49.092;8.516;2023-02-24T08:56:10;11.50;57.60
12156;DHT22;6141;49.092;8.516;2023-02-24T08:58:40;11.50;58.30
12156;DHT22;6141;49.092;8.516;2023-02-24T09:01:18;11.40;57.00
12156;DHT22;6141;49.092;8.516;2023-02-24T09:03:52;11.50;58.30
12156;DHT22;6141;49.092;8.516;2023-02-24T09:06:24;11.60;58.40
12156;DHT22;6141;49.092;8.516;2023-02-24T09:08:55;11.50;55.90
12156;DHT22;6141;49.092;8.516;2023-02-24T09:11:38;11.60;58.30
12156;DHT22;6141;49.092;8.516;2023-02-24T09:14:12;11.60;57.90
12156;DHT22;6141;49.092;8.516;2023-02-24T09:16:58;11.70;57.80
12156;DHT22;6141;49.092;8.516;2023-02-24T09:19:33;11.70;57.10
12156;DHT22;6141;49.092;8.516;2023-02-24T09:22:32;11.60;57.60
12156;DHT22;6141;49.092;8.516;2023-02-24T09:25:24;11.50;58.40
12156;DHT22;6141;49.092;8.516;2023-02-24T09:28:09;11.50;58.30
12156;DHT22;6141;49.092;8.516;2023-02-24T09:30:45;11.50;58.30
12156;DHT22;6141;49.092;8.516;2023-02-24T09:33:23;11.60;58.40
12156;DHT22;6141;49.092;8.516;2023-02-24T09:35:54;11.50;57.50
12156;DHT22;6141;49.092;8.516;2023-02-24T09:38:29;11.60;57.30
12156;DHT22;6141;49.092;8.516;2023-02-24T09:41:26;11.60;54.50
12156;DHT22;6141;49.092;8.516;2023-02-24T09:44:02;11.60;57.20
12156;DHT22;6141;49.092;8.516;2023-02-24T09:46:45;11.60;55.60
12156;DHT22;6141;49.092;8.516;2023-02-24T09:49:23;11.70;56.10
12156;DHT22;6141;49.092;8.516;2023-02-24T09:51:52;11.70;54.50
12156;DHT22;6141;49.092;8.516;2023-02-24T09:54:30;11.80;54.40
12156;DHT22;6141;49.092;8.516;2023-02-24T09:57:05;11.80;55.10
12156;DHT22;6141;49.092;8.516;2023-02-24T09:59:51;11.70;55.60
12156;DHT22;6141;49.092;8.516;2023-02-24T10:02:39;11.80;55.90
12156;DHT22;6141;49.092;8.516;2023-02-24T10:05:19;11.70;55.50
12156;DHT22;6141;49.092;8.516;2023-02-24T10:07:53;11.70;55.80
12156;DHT22;6141;49.092;8.516;2023-02-24T10:10:25;11.70;55.30
12156;DHT22;6141;49.092;8.516;2023-02-24T10:13:02;11.70;54.30
12156;DHT22;6141;49.092;8.516;2023-02-24T10:15:40;11.70;55.90
12156;DHT22;6141;49.092;8.516;2023-02-24T10:18:29;11.60;54.00
12156;DHT22;6141;49.092;8.516;2023-02-24T10:21:04;11.60;54.00
12156;DHT22;6141;49.092;8.516;2023-02-24T10:23:42;11.60;54.70
12156;DHT22;6141;49.092;8.516;2023-02-24T10:26:25;11.60;54.50
12156;DHT22;6141;49.092;8.516;2023-02-24T10:29:07;11.60;55.10
12156;DHT22;6141;49.092;8.516;2023-02-24T10:31:49;11.70;55.50
12156;DHT22;6141;49.092;8.516;2023-02-24T10:34:25;11.80;55.10
12156;DHT22;6141;49.092;8.516;2023-02-24T10:36:58;11.80;54.30
12156;DHT22;6141;49.092;8.516;2023-02-24T10:39:34;11.70;55.00
12156;DHT22;6141;49.092;8.516;2023-02-24T10:42:04;11.70;55.50
12156;DHT22;6141;49.092;8.516;2023-02-24T10:44:49;11.80;55.70
12156;DHT22;6141;49.092;8.516;2023-02-24T10:47:30;11.70;57.30
12156;DHT22;6141;49.092;8.516;2023-02-24T10:50:00;11.80;58.60
12156;DHT22;6141;49.092;8.516;2023-02-24T10:52:31;11.90;59.30
12156;DHT22;6141;49.092;8.516;2023-02-24T10:55:04;11.70;55.70
12156;DHT22;6141;49.092;8.516;2023-02-24T10:57:50;11.50;58.30
12156;DHT22;6141;49.092;8.516;2023-02-24T11:00:48;11.60;57.50
12156;DHT22;6141;49.092;8.516;2023-02-24T11:03:29;11.80;58.60
12156;DHT22;6141;49.092;8.516;2023-02-24T11:06:19;11.90;55.40
12156;DHT22;6141;49.092;8.516;2023-02-24T11:09:15;12.00;57.00
12156;DHT22;6141;49.092;8.516;2023-02-24T11:12:03;11.80;58.60
12156;DHT22;6141;49.092;8.516;2023-02-24T11:14:51;11.80;58.60
12156;DHT22;6141;49.092;8.516;2023-02-24T11:17:48;11.60;58.40
12156;DHT22;6141;49.092;8.516;2023-02-24T11:20:27;11.40;60.30
12156;DHT22;6141;49.092;8.516;2023-02-24T11:23:16;11.40;60.60
12156;DHT22;6141;49.092;8.516;2023-02-24T11:25:48;11.70;58.50
12156;DHT22;6141;49.092;8.516;2023-02-24T11:31:19;11.80;60.30
12156;DHT22;6141;49.092;8.516;2023-02-24T11:33:59;11.70;58.80
12156;DHT22;6141;49.092;8.516;2023-02-24T11:36:39;11.80;59.30
12156;DHT22;6141;49.092;8.516;2023-02-24T11:39:27;11.90;57.50
12156;DHT22;6141;49.092;8.516;2023-02-24T11:42:00;12.10;57.10
12156;DHT22;6141;49.092;8.516;2023-02-24T11:44:35;12.20;56.00
12156;DHT22;6141;49.092;8.516;2023-02-24T11:47:12;12.30;54.50
12156;DHT22;6141;49.092;8.516;2023-02-24T11:49:47;12.50;54.20
12156;DHT22;6141;49.092;8.516;2023-02-24T11:52:23;12.40;53.20
12156;DHT22;6141;49.092;8.516;2023-02-24T11:54:57;12.10;54.80
12156;DHT22;6141;49.092;8.516;2023-02-24T11:57:37;12.00;55.90
12156;DHT22;6141;49.092;8.516;2023-02-24T12:00:14;12.30;56.20
12156;DHT22;6141;49.092;8.516;2023-02-24T12:02:51;12.50;53.30
12156;DHT22;6141;49.092;8.516;2023-02-24T12:05:25;12.40;54.20
12156;DHT22;6141;49.092;8.516;2023-02-24T12:07:57;12.30;54.60
12156;DHT22;6141;49.092;8.516;2023-02-24T12:10:30;12.40;54.30
12156;DHT22;6141;49.092;8.516;2023-02-24T12:13:04;12.40;54.40
12156;DHT22;6141;49.092;8.516;2023-02-24T12:15:38;12.20;57.90
12156;DHT22;6141;49.092;8.516;2023-02-24T12:18:14;12.10;56.40
12156;DHT22;6141;49.092;8.516;2023-02-24T12:20:47;12.00;54.70
12156;DHT22;6141;49.092;8.516;2023-02-24T12:23:22;12.10;57.20
12156;DHT22;6141;49.092;8.516;2023-02-24T12:26:13;12.30;54.90
12156;DHT22;6141;49.092;8.516;2023-02-24T12:31:38;12.40;53.20
12156;DHT22;6141;49.092;8.516;2023-02-24T12:34:15;12.40;54.90
12156;DHT22;6141;49.092;8.516;2023-02-24T12:36:58;12.50;54.80
12156;DHT22;6141;49.092;8.516;2023-02-24T12:39:39;12.40;54.60
12156;DHT22;6141;49.092;8.516;2023-02-24T12:42:18;12.40;56.20
12156;DHT22;6141;49.092;8.516;2023-02-24T12:44:55;12.50;55.30
12156;DHT22;6141;49.092;8.516;2023-02-24T12:47:33;12.50;54.40
12156;DHT22;6141;49.092;8.516;2023-02-24T12:50:28;12.40;54.70
12156;DHT22;6141;49.092;8.516;2023-02-24T12:53:04;12.40;55.80
12156;DHT22;6141;49.092;8.516;2023-02-24T12:55:45;12.30;57.40
12156;DHT22;6141;49.092;8.516;2023-02-24T12:58:24;12.40;55.90
12156;DHT22;6141;49.092;8.516;2023-02-24T13:01:01;12.40;56.00
12156;DHT22;6141;49.092;8.516;2023-02-24T13:04:01;12.40;55.90
12156;DHT22;6141;49.092;8.516;2023-02-24T13:06:40;12.30;56.70
12156;DHT22;6141;49.092;8.516;2023-02-24T13:09:39;12.20;57.00
12156;DHT22;6141;49.092;8.516;2023-02-24T13:12:14;12.00;57.40
12156;DHT22;6141;49.092;8.516;2023-02-24T13:14:59;11.90;58.70
12156;DHT22;6141;49.092;8.516;2023-02-24T13:17:27;11.80;58.60
12156;DHT22;6141;49.092;8.516;2023-02-24T13:19:56;11.80;59.30
12156;DHT22;6141;49.092;8.516;2023-02-24T13:22:27;11.70;59.70
12156;DHT22;6141;49.092;8.516;2023-02-24T13:25:00;11.80;60.30
12156;DHT22;6141;49.092;8.516;2023-02-24T13:27:33;11.70;60.30
12156;DHT22;6141;49.092;8.516;2023-02-24T13:30:06;11.70;60.60
12156;DHT22;6141;49.092;8.516;2023-02-24T13:33:20;11.70;59.50
12156;DHT22;6141;49.092;8.516;2023-02-24T13:35:49;11.60;59.80
12156;DHT22;6141;49.092;8.516;2023-02-24T13:38:23;11.60;60.40
12156;DHT22;6141;49.092;8.516;2023-02-24T13:40:53;11.60;60.60
12156;DHT22;6141;49.092;8.516;2023-02-24T13:43:22;11.60;60.60
12156;DHT22;6141;49.092;8.516;2023-02-24T13:45:53;11.50;60.20
12156;DHT22;6141;49.092;8.516;2023-02-24T13:48:26;11.60;60.80
12156;DHT22;6141;49.092;8.516;2023-02-24T13:51:01;11.70;60.50
12156;DHT22;6141;49.092;8.516;2023-02-24T13:53:37;11.70;60.30
12156;DHT22;6141;49.092;8.516;2023-02-24T13:56:12;11.70;60.80
12156;DHT22;6141;49.092;8.516;2023-02-24T13:59:09;11.80;60.40
12156;DHT22;6141;49.092;8.516;2023-02-24T14:01:44;11.70;60.80
12156;DHT22;6141;49.092;8.516;2023-02-24T14:04:13;11.60;60.60
12156;DHT22;6141;49.092;8.516;2023-02-24T14:06:44;11.40;61.00
12156;DHT22;6141;49.092;8.516;2023-02-24T14:09:13;11.30;62.10
12156;DHT22;6141;49.092;8.516;2023-02-24T14:11:44;11.30;62.90
12156;DHT22;6141;49.092;8.516;2023-02-24T14:14:12;11.40;63.40
12156;DHT22;6141;49.092;8.516;2023-02-24T14:16:44;11.50;62.00
12156;DHT22;6141;49.092;8.516;2023-02-24T14:19:14;11.50;62.30
12156;DHT22;6141;49.092;8.516;2023-02-24T14:21:47;11.50;62.80
12156;DHT22;6141;49.092;8.516;2023-02-24T14:24:16;11.60;63.50
12156;DHT22;6141;49.092;8.516;2023-02-24T14:26:46;11.70;61.50
12156;DHT22;6141;49.092;8.516;2023-02-24T14:29:18;11.80;61.30
12156;DHT22;6141;49.092;8.516;2023-02-24T14:31:50;12.00;60.60
12156;DHT22;6141;49.092;8.516;2023-02-24T14:34:20;12.00;58.80
12156;DHT22;6141;49.092;8.516;2023-02-24T14:36:50;12.00;59.10
12156;DHT22;6141;49.092;8.516;2023-02-24T14:39:19;11.90;59.70
12156;DHT22;6141;49.092;8.516;2023-02-24T14:41:50;11.80;59.60
12156;DHT22;6141;49.092;8.516;2023-02-24T14:44:22;11.80;58.60
12156;DHT22;6141;49.092;8.516;2023-02-24T14:46:51;11.80;59.20
12156;DHT22;6141;49.092;8.516;2023-02-24T14:49:22;11.90;58.70
12156;DHT22;6141;49.092;8.516;2023-02-24T14:51:52;11.90;58.70
12156;DHT22;6141;49.092;8.516;2023-02-24T14:54:24;11.80;59.00
12156;DHT22;6141;49.092;8.516;2023-02-24T14:56:56;11.90;58.70
12156;DHT22;6141;49.092;8.516;2023-02-24T14:59:27;12.10;58.90
12156;DHT22;6141;49.092;8.516;2023-02-24T15:01:55;12.10;58.90
12156;DHT22;6141;49.092;8.516;2023-02-24T15:04:25;12.10;57.10
12156;DHT22;6141;49.092;8.516;2023-02-24T15:06:57;12.10;57.50
12156;DHT22;6141;49.092;8.516;2023-02-24T15:09:26;12.10;57.10
12156;DHT22;6141;49.092;8.516;2023-02-24T15:11:57;12.10;57.60
12156;DHT22;6141;49.092;8.516;2023-02-24T15:14:26;12.20;56.80
12156;DHT22;6141;49.092;8.516;2023-02-24T15:16:56;12.20;56.70
12156;DHT22;6141;49.092;8.516;2023-02-24T15:19:26;12.00;56.80
12156;DHT22;6141;49.092;8.516;2023-02-24T15:21:58;12.10;57.70
12156;DHT22;6141;49.092;8.516;2023-02-24T15:24:27;12.10;57.20
12156;DHT22;6141;49.092;8.516;2023-02-24T15:26:58;12.00;57.20
12156;DHT22;6141;49.092;8.516;2023-02-24T15:29:28;12.10;56.60
12156;DHT22;6141;49.092;8.516;2023-02-24T15:31:57;12.10;56.20
12156;DHT22;6141;49.092;8.516;2023-02-24T15:34:26;12.00;57.10
12156;DHT22;6141;49.092;8.516;2023-02-24T15:36:55;12.00;57.10
12156;DHT22;6141;49.092;8.516;2023-02-24T15:39:25;12.00;57.00
12156;DHT22;6141;49.092;8.516;2023-02-24T15:42:05;11.80;56.90
12156;DHT22;6141;49.092;8.516;2023-02-24T15:44:34;11.70;56.90
12156;DHT22;6141;49.092;8.516;2023-02-24T15:47:11;11.70;57.30
12156;DHT22;6141;49.092;8.516;2023-02-24T15:49:39;11.70;57.30
12156;DHT22;6141;49.092;8.516;2023-02-24T15:52:07;11.50;58.20
12156;DHT22;6141;49.092;8.516;2023-02-24T15:54:36;11.50;58.30
12156;DHT22;6141;49.092;8.516;2023-02-24T15:57:09;11.50;58.30
12156;DHT22;6141;49.092;8.516;2023-02-24T15:59:39;11.50;57.10
12156;DHT22;6141;49.092;8.516;2023-02-24T16:02:10;11.40;57.40
12156;DHT22;6141;49.092;8.516;2023-02-24T16:04:39;11.30;58.10
12156;DHT22;6141;49.092;8.516;2023-02-24T16:07:08;11.30;58.10
12156;DHT22;6141;49.092;8.516;2023-02-24T16:09:38;11.40;58.20
12156;DHT22;6141;49.092;8.516;2023-02-24T16:12:07;11.20;58.00
12156;DHT22;6141;49.092;8.516;2023-02-24T16:14:39;11.20;58.90
12156;DHT22;6141;49.092;8.516;2023-02-24T16:17:08;11.20;58.20
12156;DHT22;6141;49.092;8.516;2023-02-24T16:19:43;11.20;58.70
12156;DHT22;6141;49.092;8.516;2023-02-24T16:22:11;11.10;59.20
12156;DHT22;6141;49.092;8.516;2023-02-24T16:24:40;11.10;58.50
12156;DHT22;6141;49.092;8.516;2023-02-24T16:27:12;11.20;58.00
12156;DHT22;6141;49.092;8.516;2023-02-24T16:29:43;11.30;58.10
12156;DHT22;6141;49.092;8.516;2023-02-24T16:32:12;11.30;58.10
12156;DHT22;6141;49.092;8.516;2023-02-24T16:34:41;11.30;58.10
12156;DHT22;6141;49.092;8.516;2023-02-24T16:37:11;11.30;57.40
12156;DHT22;6141;49.092;8.516;2023-02-24T16:39:42;11.40;57.60
12156;DHT22;6141;49.092;8.516;2023-02-24T16:42:10;11.30;57.30